Time;durP1;ratioP1;P1;durP2;ratioP2;P2;SDS_P1;SDS_P2;PMS_P1;PMS_P2;Temp;Humidity;BMP_temperature;BMP_pressure;BME280_temperature;BME280_humidity;BME280_pressure;Samples;Min_cycle;Max_cycle;Signal;HPM_P1;HPM_P2
2023/03/21 00:04:35;;;;;;;21.83;13.13;;;;;;;;;;10578316;28;20039;-80
2023/03/21 00:09:56;;;;;;;25.13;13.15;;;;;;;;;;10560561;28;20440;-80
2023/03/21 00:15:17;;;;;;;29.88;14.60;;;;;;;;;;10535009;28;20036;-80
2023/03/21 00:20:38;;;;;;;30.02;13.88;;;;;;;;;;10546949;27;20028;-80
2023/03/21 00:25:59;;;;;;;33.83;16.05;;;;;;;;;;10533179;28;20040;-80
2023/03/21 00:31:20;;;;;;;32.03;14.65;;;;;;;;;;10524551;28;20028;-80
2023/03/21 00:36:41;;;;;;;29.00;14.70;;;;;;;;;;10530525;28;20036;-80
2023/03/21 00:42:02;;;;;;;40.47;16.60;;;;;;;;;;10534025;28;20031;-80
2023/03/21 00:47:23;;;;;;;31.55;14.48;;;;;;;;;;10534079;28;20047;-80
2023/03/21 00:52:44;;;;;;;31.33;15.70;;;;;;;;;;10538245;28;20048;-80
2023/03/21 00:58:05;;;;;;;32.72;15.57;;;;;;;;;;10531162;28;20031;-80
2023/03/21 01:03:27;;;;;;;32.65;15.00;;;;;;;;;;10540004;28;20032;-80
2023/03/21 01:08:48;;;;;;;30.77;15.75;;;;;;;;;;10535816;28;20055;-80
2023/03/21 01:14:10;;;;;;;35.60;15.18;;;;;;;;;;10528092;28;20032;-81
2023/03/21 01:19:31;;;;;;;33.28;14.98;;;;;;;;;;10531152;28;20058;-80
2023/03/21 01:24:52;;;;;;;29.92;15.45;;;;;;;;;;10512747;28;20036;-81
2023/03/21 01:30:13;;;;;;;36.10;14.73;;;;;;;;;;10526087;28;20040;-80
2023/03/21 01:35:35;;;;;;;22.70;12.52;;;;;;;;;;10540006;28;20043;-80
2023/03/21 01:40:58;;;;;;;32.30;14.73;;;;;;;;;;10526970;28;20040;-80
2023/03/21 01:46:20;;;;;;;34.92;12.45;;;;;;;;;;10533513;28;20389;-80
2023/03/21 01:51:51;;;;;;;25.90;12.43;;;;;;;;;;10556258;28;20401;-80
2023/03/21 01:57:17;;;;;;;20.55;11.45;;;;;;;;;;10545922;28;20054;-80
2023/03/21 02:02:49;;;;;;;21.77;10.93;;;;;;;;;;10557437;28;20044;-80
2023/03/21 02:08:12;;;;;;;22.75;11.35;;;;;;;;;;10546797;28;20047;-81
2023/03/21 02:13:32;;;;;;;32.08;13.77;;;;;;;;;;10529295;28;20028;-80
2023/03/21 02:19:09;;;;;;;28.30;12.30;;;;;;;;;;10529423;28;20071;-80
2023/03/21 02:24:46;;;;;;;28.38;13.02;;;;;;;;;;10520820;28;20047;-81
2023/03/21 02:30:10;;;;;;;26.17;11.68;;;;;;;;;;10527384;28;20044;-80
2023/03/21 02:35:40;;;;;;;26.00;12.65;;;;;;;;;;10516743;28;20024;-80
2023/03/21 02:41:09;;;;;;;18.77;11.68;;;;;;;;;;10547861;28;20040;-80
2023/03/21 02:46:34;;;;;;;25.27;11.68;;;;;;;;;;10542944;28;20036;-81
2023/03/21 02:51:57;;;;;;;19.42;11.10;;;;;;;;;;10530599;28;20035;-79
2023/03/21 02:57:18;;;;;;;27.95;12.10;;;;;;;;;;10530174;28;20051;-79
2023/03/21 03:02:40;;;;;;;22.98;11.50;;;;;;;;;;10531779;28;20055;-80
2023/03/21 03:08:01;;;;;;;26.20;12.00;;;;;;;;;;10540444;28;20069;-79
2023/03/21 03:13:34;;;;;;;25.08;11.68;;;;;;;;;;10519381;28;20028;-74
2023/03/21 03:18:57;;;;;;;23.88;12.15;;;;;;;;;;10542109;28;20467;-74
2023/03/21 03:24:30;;;;;;;21.17;11.52;;;;;;;;;;10538453;28;20039;-75
2023/03/21 03:29:52;;;;;;;22.67;12.57;;;;;;;;;;10522454;28;20036;-74
2023/03/21 03:35:15;;;;;;;23.52;11.45;;;;;;;;;;10545199;28;20064;-75
2023/03/21 03:40:50;;;;;;;27.25;12.25;;;;;;;;;;10533026;28;20035;-78
2023/03/21 03:46:20;;;;;;;29.85;12.75;;;;;;;;;;10516443;28;20048;-77
2023/03/21 03:51:45;;;;;;;18.92;12.30;;;;;;;;;;10514257;28;20504;-78
2023/03/21 03:57:07;;;;;;;34.28;13.75;;;;;;;;;;10464871;28;1073794;-78
2023/03/21 04:02:29;;;;;;;25.67;11.57;;;;;;;;;;10524655;28;20035;-78
2023/03/21 04:07:49;;;;;;;28.08;13.18;;;;;;;;;;10520496;28;20072;-78
2023/03/21 04:13:10;;;;;;;31.17;13.05;;;;;;;;;;10507971;28;20032;-78
2023/03/21 04:18:31;;;;;;;39.78;15.70;;;;;;;;;;10513948;28;20028;-78
2023/03/21 04:23:53;;;;;;;19.35;10.50;;;;;;;;;;10529544;28;20040;-78
2023/03/21 04:29:14;;;;;;;24.05;12.55;;;;;;;;;;10544735;28;20042;-78
2023/03/21 04:34:39;;;;;;;20.85;12.15;;;;;;;;;;10533754;28;20027;-78
2023/03/21 04:40:04;;;;;;;31.60;13.50;;;;;;;;;;10548051;27;20028;-77
2023/03/21 04:45:25;;;;;;;36.35;14.30;;;;;;;;;;10497737;28;20428;-77
2023/03/21 04:50:46;;;;;;;25.17;12.13;;;;;;;;;;10506293;28;20031;-78
2023/03/21 04:56:07;;;;;;;29.30;13.68;;;;;;;;;;10523741;28;20044;-78
2023/03/21 05:01:29;;;;;;;30.40;13.45;;;;;;;;;;10512387;28;20039;-78
2023/03/21 05:06:50;;;;;;;26.17;13.43;;;;;;;;;;10508616;28;20074;-78
2023/03/21 05:12:11;;;;;;;21.45;12.80;;;;;;;;;;10515307;28;20035;-78
2023/03/21 05:17:32;;;;;;;26.52;12.50;;;;;;;;;;10530123;28;20043;-78
2023/03/21 05:22:53;;;;;;;26.17;12.52;;;;;;;;;;10552307;28;20028;-78
2023/03/21 05:28:17;;;;;;;27.02;11.98;;;;;;;;;;10518164;28;20518;-77
2023/03/21 05:33:37;;;;;;;33.90;14.52;;;;;;;;;;10504406;28;20024;-78
2023/03/21 05:38:58;;;;;;;29.30;13.75;;;;;;;;;;10524653;28;20035;-77
2023/03/21 05:44:19;;;;;;;29.35;13.35;;;;;;;;;;10520576;28;20484;-77
2023/03/21 05:49:40;;;;;;;41.63;13.90;;;;;;;;;;10509181;28;20050;-78
2023/03/21 05:55:02;;;;;;;24.23;12.38;;;;;;;;;;10526707;28;20052;-78
2023/03/21 06:00:23;;;;;;;37.58;16.00;;;;;;;;;;10522443;28;20028;-77
2023/03/21 06:05:44;;;;;;;26.00;12.05;;;;;;;;;;10532454;28;20053;-78
2023/03/21 06:11:07;;;;;;;25.63;11.95;;;;;;;;;;10540493;28;20421;-78
2023/03/21 06:16:29;;;;;;;26.60;12.73;;;;;;;;;;10527795;28;20036;-78
2023/03/21 06:21:50;;;;;;;25.40;12.20;;;;;;;;;;10524173;28;20036;-78
2023/03/21 06:27:11;;;;;;;20.35;12.30;;;;;;;;;;10529767;28;20032;-78
2023/03/21 06:32:31;;;;;;;26.77;12.18;;;;;;;;;;10548559;28;20031;-78
2023/03/21 06:37:52;;;;;;;26.80;11.35;;;;;;;;;;10527818;28;20024;-79
2023/03/21 06:43:14;;;;;;;24.13;11.20;;;;;;;;;;10557553;28;20393;-80
2023/03/21 06:48:36;;;;;;;21.73;10.77;;;;;;;;;;10500814;28;20034;-76
2023/03/21 06:53:57;;;;;;;30.45;12.65;;;;;;;;;;10531184;28;20047;-75
2023/03/21 06:59:18;;;;;;;15.52;9.88;;;;;;;;;;10524465;28;20420;-75
2023/03/21 07:04:39;;;;;;;20.58;10.38;;;;;;;;;;10523020;28;20028;-76
2023/03/21 07:10:00;;;;;;;25.95;11.95;;;;;;;;;;10538330;28;20039;-76
2023/03/21 07:15:20;;;;;;;20.20;11.70;;;;;;;;;;10513639;28;20043;-77
2023/03/21 07:20:46;;;;;;;20.67;10.80;;;;;;;;;;10521463;28;20039;-76
2023/03/21 07:26:07;;;;;;;22.48;11.15;;;;;;;;;;10525322;28;20040;-76
2023/03/21 07:31:28;;;;;;;21.40;11.98;;;;;;;;;;10547227;28;20036;-77
2023/03/21 07:36:49;;;;;;;26.60;10.75;;;;;;;;;;10485193;28;20024;-78
2023/03/21 07:42:10;;;;;;;18.35;9.95;;;;;;;;;;10521731;28;20025;-78
2023/03/21 07:47:31;;;;;;;18.40;10.93;;;;;;;;;;10528955;28;20503;-77
2023/03/21 07:52:52;;;;;;;21.38;11.75;;;;;;;;;;10539351;28;20048;-75
2023/03/21 07:58:13;;;;;;;22.65;10.88;;;;;;;;;;10558054;28;20043;-83
2023/03/21 08:03:34;;;;;;;20.83;9.75;;;;;;;;;;10524234;28;20040;-79
2023/03/21 08:08:55;;;;;;;27.50;11.98;;;;;;;;;;10524524;28;20035;-79
2023/03/21 08:14:16;;;;;;;25.95;12.05;;;;;;;;;;10521091;28;20192;-74
2023/03/21 08:19:37;;;;;;;36.55;14.52;;;;;;;;;;10529556;27;20032;-79
2023/03/21 08:24:58;;;;;;;25.38;12.65;;;;;;;;;;10510287;28;20055;-76
2023/03/21 08:30:20;;;;;;;35.33;17.80;;;;;;;;;;10508091;28;20035;-76
2023/03/21 08:35:41;;;;;;;25.73;12.85;;;;;;;;;;10509626;28;20047;-80
2023/03/21 08:41:02;;;;;;;23.30;11.93;;;;;;;;;;10519837;28;20043;-80
2023/03/21 08:46:23;;;;;;;32.25;14.68;;;;;;;;;;10526418;28;20039;-75
2023/03/21 08:51:44;;;;;;;28.63;12.85;;;;;;;;;;10536193;27;20476;-73
2023/03/21 08:57:07;;;;;;;31.95;13.55;;;;;;;;;;10506970;28;20048;-74
2023/03/21 09:02:28;;;;;;;21.40;12.88;;;;;;;;;;10523669;28;20382;-75
2023/03/21 09:07:49;;;;;;;26.48;11.23;;;;;;;;;;10534613;28;20045;-77
2023/03/21 09:13:09;;;;;;;28.60;12.73;;;;;;;;;;10537271;27;20036;-74
2023/03/21 09:18:49;;;;;;;20.40;11.07;;;;;;;;;;10520706;28;20443;-82
2023/03/21 09:24:11;;;;;;;24.10;11.18;;;;;;;;;;10506631;28;20051;-75
2023/03/21 09:29:32;;;;;;;26.80;11.57;;;;;;;;;;10514699;28;20484;-77
2023/03/21 09:34:56;;;;;;;24.98;11.68;;;;;;;;;;10536207;27;20031;-75
2023/03/21 09:40:18;;;;;;;22.45;11.80;;;;;;;;;;10532231;27;20519;-74
2023/03/21 09:45:46;;;;;;;18.65;10.88;;;;;;;;;;10534436;28;20041;-75
2023/03/21 09:51:09;;;;;;;25.88;11.60;;;;;;;;;;10518117;28;20966;-75
2023/03/21 09:56:30;;;;;;;20.42;11.40;;;;;;;;;;10518098;28;20051;-75
2023/03/21 10:01:51;;;;;;;17.85;9.65;;;;;;;;;;10520344;28;20571;-73
2023/03/21 10:07:18;;;;;;;27.63;12.13;;;;;;;;;;10509119;28;20103;-76
2023/03/21 10:12:40;;;;;;;28.33;11.90;;;;;;;;;;10502121;28;20035;-77
2023/03/21 10:18:03;;;;;;;23.88;11.25;;;;;;;;;;10525390;28;20033;-78
2023/03/21 10:23:27;;;;;;;20.63;10.07;;;;;;;;;;10527977;28;20454;-78
2023/03/21 10:28:48;;;;;;;21.48;10.88;;;;;;;;;;10527174;28;20036;-78
2023/03/21 10:34:15;;;;;;;20.63;10.20;;;;;;;;;;10525343;28;20043;-77
2023/03/21 10:39:37;;;;;;;23.08;9.05;;;;;;;;;;10512883;28;20043;-78
2023/03/21 10:44:58;;;;;;;23.05;10.65;;;;;;;;;;10534323;27;20067;-78
2023/03/21 10:50:24;;;;;;;16.88;9.23;;;;;;;;;;10548679;27;20153;-78
2023/03/21 10:55:47;;;;;;;21.33;9.65;;;;;;;;;;10522079;28;20635;-77
2023/03/21 11:01:13;;;;;;;23.10;9.73;;;;;;;;;;10524830;28;20036;-77
2023/03/21 11:06:36;;;;;;;17.10;9.18;;;;;;;;;;10510734;28;20086;-77
2023/03/21 11:12:01;;;;;;;19.95;9.13;;;;;;;;;;10522886;28;20036;-76
2023/03/21 11:17:23;;;;;;;17.73;8.82;;;;;;;;;;10520583;28;20531;-77
2023/03/21 11:22:45;;;;;;;25.50;10.82;;;;;;;;;;10542792;27;20036;-76
2023/03/21 11:28:14;;;;;;;51.30;16.35;;;;;;;;;;10530790;28;20082;-77
2023/03/21 11:33:43;;;;;;;16.88;9.05;;;;;;;;;;10536197;28;20040;-76
2023/03/21 11:39:14;;;;;;;14.68;8.25;;;;;;;;;;10526059;28;20416;-76
2023/03/21 11:44:41;;;;;;;17.10;8.85;;;;;;;;;;10558835;28;20024;-76
2023/03/21 11:50:05;;;;;;;17.45;7.65;;;;;;;;;;10550261;27;20032;-76
2023/03/21 11:55:32;;;;;;;14.95;6.93;;;;;;;;;;10522817;28;20079;-77
2023/03/21 12:00:59;;;;;;;21.38;10.32;;;;;;;;;;10516898;28;20043;-76
2023/03/21 12:06:26;;;;;;;19.40;8.68;;;;;;;;;;10499275;28;20043;-76
2023/03/21 12:11:58;;;;;;;18.42;8.55;;;;;;;;;;10534985;28;20032;-76
2023/03/21 12:17:31;;;;;;;18.13;8.82;;;;;;;;;;10529331;28;20032;-76
2023/03/21 12:23:10;;;;;;;22.10;9.38;;;;;;;;;;10510923;28;20036;-76
2023/03/21 12:28:37;;;;;;;16.80;8.00;;;;;;;;;;10531236;27;20043;-77
2023/03/21 12:34:18;;;;;;;18.88;8.98;;;;;;;;;;10515524;28;20315;-76
2023/03/21 12:39:39;;;;;;;18.30;7.75;;;;;;;;;;10491998;28;20367;-76
2023/03/21 12:45:03;;;;;;;14.00;7.97;;;;;;;;;;10538488;27;20511;-76
2023/03/21 12:50:35;;;;;;;18.83;8.82;;;;;;;;;;10512392;28;20036;-76
2023/03/21 12:56:00;;;;;;;13.88;7.97;;;;;;;;;;10523836;28;20519;-76
2023/03/21 13:01:21;;;;;;;20.98;8.02;;;;;;;;;;10521435;28;20584;-76
2023/03/21 13:06:43;;;;;;;21.73;9.82;;;;;;;;;;10516462;28;20032;-74
2023/03/21 13:12:14;;;;;;;14.88;7.38;;;;;;;;;;10513259;28;20036;-73
2023/03/21 13:17:41;;;;;;;15.40;7.63;;;;;;;;;;10530483;28;20032;-73
2023/03/21 13:23:03;;;;;;;10.30;7.53;;;;;;;;;;10527743;28;20060;-73
2023/03/21 13:28:28;;;;;;;17.25;7.32;;;;;;;;;;10521980;28;20032;-73
2023/03/21 13:33:49;;;;;;;13.23;7.80;;;;;;;;;;10537365;28;20032;-73
2023/03/21 13:39:30;;;;;;;9.98;7.25;;;;;;;;;;10526732;28;20039;-73
2023/03/21 13:44:59;;;;;;;13.65;8.10;;;;;;;;;;10506467;28;20047;-72
2023/03/21 13:50:22;;;;;;;18.60;8.32;;;;;;;;;;10514028;28;20020;-73
2023/03/21 13:55:44;;;;;;;20.35;9.25;;;;;;;;;;10522943;28;20048;-73
2023/03/21 14:01:15;;;;;;;16.38;9.15;;;;;;;;;;10503833;28;20047;-74
2023/03/21 14:06:55;;;;;;;22.02;9.48;;;;;;;;;;10515275;28;20035;-74
2023/03/21 14:12:17;;;;;;;21.15;10.07;;;;;;;;;;10517126;28;20032;-74
2023/03/21 14:17:47;;;;;;;20.45;8.38;;;;;;;;;;10537748;27;20054;-75
2023/03/21 14:23:13;;;;;;;10.85;6.97;;;;;;;;;;10521901;28;20035;-75
2023/03/21 14:28:35;;;;;;;12.57;6.60;;;;;;;;;;10520058;28;20033;-75
2023/03/21 14:33:57;;;;;;;17.98;8.95;;;;;;;;;;10506239;28;20527;-74
2023/03/21 14:39:22;;;;;;;12.63;7.22;;;;;;;;;;10546687;27;20039;-75
2023/03/21 14:44:58;;;;;;;19.75;9.52;;;;;;;;;;10536051;27;20055;-74
2023/03/21 14:50:20;;;;;;;19.65;8.98;;;;;;;;;;10527205;28;20837;-73
2023/03/21 14:55:46;;;;;;;25.30;9.27;;;;;;;;;;10517924;28;20047;-73
2023/03/21 15:01:13;;;;;;;19.15;8.45;;;;;;;;;;10530505;27;20036;-73
2023/03/21 15:06:46;;;;;;;16.77;8.38;;;;;;;;;;10532331;27;20035;-73
2023/03/21 15:12:08;;;;;;;19.85;8.55;;;;;;;;;;10533858;27;20559;-73
2023/03/21 15:17:29;;;;;;;21.20;8.02;;;;;;;;;;10509219;28;20028;-73
2023/03/21 15:23:01;;;;;;;29.35;9.93;;;;;;;;;;10491682;28;20059;-74
2023/03/21 15:28:23;;;;;;;18.45;8.35;;;;;;;;;;10517933;28;20149;-73
2023/03/21 15:33:46;;;;;;;12.88;7.25;;;;;;;;;;10536607;27;20497;-73
2023/03/21 15:39:11;;;;;;;17.02;7.35;;;;;;;;;;10526147;28;20044;-73
2023/03/21 15:44:33;;;;;;;16.67;9.80;;;;;;;;;;10533821;28;20032;-73
2023/03/21 15:49:54;;;;;;;14.55;5.97;;;;;;;;;;10528142;28;20039;-76
2023/03/21 15:55:20;;;;;;;9.35;6.18;;;;;;;;;;10548209;28;20396;-76
2023/03/21 16:00:42;;;;;;;13.60;7.15;;;;;;;;;;10537501;28;20306;-76
2023/03/21 16:06:05;;;;;;;10.95;7.25;;;;;;;;;;10537276;28;20044;-77
2023/03/21 16:11:27;;;;;;;21.50;7.95;;;;;;;;;;10534625;28;20741;-75
2023/03/21 16:16:48;;;;;;;13.63;6.95;;;;;;;;;;10524613;28;20062;-77
2023/03/21 16:22:10;;;;;;;11.35;6.53;;;;;;;;;;10541020;28;20046;-77
2023/03/21 16:27:30;;;;;;;10.45;5.90;;;;;;;;;;10535378;28;20032;-77
2023/03/21 16:32:51;;;;;;;11.13;6.53;;;;;;;;;;10529181;28;20082;-77
2023/03/21 16:38:12;;;;;;;12.95;7.03;;;;;;;;;;10530802;28;20048;-77
2023/03/21 16:43:33;;;;;;;13.30;7.45;;;;;;;;;;10527726;28;20431;-76
2023/03/21 16:48:55;;;;;;;14.55;7.15;;;;;;;;;;10516576;28;20024;-77
2023/03/21 16:54:16;;;;;;;15.82;8.52;;;;;;;;;;10527437;28;20048;-77
2023/03/21 16:59:39;;;;;;;14.57;7.75;;;;;;;;;;10528418;28;20032;-77
2023/03/21 17:05:00;;;;;;;12.82;8.35;;;;;;;;;;10520389;28;20043;-75
2023/03/21 17:10:24;;;;;;;13.90;8.60;;;;;;;;;;10512368;28;20501;-76
2023/03/21 17:15:44;;;;;;;14.85;8.45;;;;;;;;;;10512206;27;20035;-76
2023/03/21 17:21:10;;;;;;;16.63;8.35;;;;;;;;;;10512598;28;20032;-76
2023/03/21 17:26:31;;;;;;;16.80;9.77;;;;;;;;;;10533932;28;20084;-77
2023/03/21 17:31:52;;;;;;;12.98;7.93;;;;;;;;;;10543155;28;20030;-76
2023/03/21 17:37:13;;;;;;;10.82;8.23;;;;;;;;;;10542609;28;20447;-77
2023/03/21 17:42:34;;;;;;;15.43;9.05;;;;;;;;;;10536767;28;20029;-77
2023/03/21 17:47:55;;;;;;;13.43;7.78;;;;;;;;;;10530560;28;20035;-78
2023/03/21 17:53:16;;;;;;;15.35;8.02;;;;;;;;;;10517266;28;20048;-77
2023/03/21 17:58:37;;;;;;;11.98;8.15;;;;;;;;;;10528119;28;20413;-77
2023/03/21 18:03:58;;;;;;;15.57;8.63;;;;;;;;;;10527331;28;20028;-78
2023/03/21 18:09:19;;;;;;;22.73;10.40;;;;;;;;;;10495698;28;20036;-76
2023/03/21 18:14:40;;;;;;;13.63;8.73;;;;;;;;;;10519937;28;20037;-78
2023/03/21 18:20:02;;;;;;;41.72;16.15;;;;;;;;;;10509247;28;20032;-76
2023/03/21 18:25:23;;;;;;;19.48;10.15;;;;;;;;;;10525564;28;20040;-82
2023/03/21 18:30:45;;;;;;;18.92;10.65;;;;;;;;;;10541630;28;20053;-78
2023/03/21 18:36:10;;;;;;;16.35;9.27;;;;;;;;;;10520657;28;20034;-77
2023/03/21 18:41:31;;;;;;;15.85;9.27;;;;;;;;;;10528022;28;20389;-75
2023/03/21 18:46:52;;;;;;;13.65;8.35;;;;;;;;;;10533532;28;20059;-76
2023/03/21 18:52:13;;;;;;;11.13;7.22;;;;;;;;;;10510640;28;20626;-75
2023/03/21 18:57:34;;;;;;;13.13;8.52;;;;;;;;;;10524469;28;20055;-73
2023/03/21 19:02:56;;;;;;;13.63;8.43;;;;;;;;;;10534016;28;20082;-74
2023/03/21 19:08:17;;;;;;;12.63;8.02;;;;;;;;;;10546159;28;20035;-76
2023/03/21 19:13:38;;;;;;;12.52;8.02;;;;;;;;;;10526976;28;20037;-75
2023/03/21 19:18:59;;;;;;;17.80;9.93;;;;;;;;;;10532071;28;20028;-75
2023/03/21 19:24:20;;;;;;;15.45;8.30;;;;;;;;;;10515907;28;20031;-75
2023/03/21 19:29:41;;;;;;;13.77;8.10;;;;;;;;;;10526468;28;20037;-75
2023/03/21 19:35:02;;;;;;;19.95;8.93;;;;;;;;;;10527230;28;20505;-77
2023/03/21 19:40:23;;;;;;;20.15;9.70;;;;;;;;;;10528021;28;20032;-76
2023/03/21 19:45:47;;;;;;;15.90;8.98;;;;;;;;;;10532558;27;20047;-75
2023/03/21 19:51:09;;;;;;;22.95;10.55;;;;;;;;;;10496000;28;20032;-76
2023/03/21 19:56:30;;;;;;;29.23;12.43;;;;;;;;;;10505578;28;20048;-74
2023/03/21 20:01:51;;;;;;;26.92;11.43;;;;;;;;;;10511117;27;20517;-74
2023/03/21 20:07:12;;;;;;;23.98;10.95;;;;;;;;;;10506123;28;20047;-77
2023/03/21 20:12:33;;;;;;;23.33;11.82;;;;;;;;;;10493838;28;20040;-76
2023/03/21 20:17:54;;;;;;;19.25;11.43;;;;;;;;;;10491333;28;20079;-79
2023/03/21 20:23:15;;;;;;;27.30;12.18;;;;;;;;;;10498731;28;20130;-73
2023/03/21 20:28:36;;;;;;;26.88;12.68;;;;;;;;;;10511097;28;20489;-76
2023/03/21 20:33:57;;;;;;;26.45;11.43;;;;;;;;;;10512801;28;20861;-76
2023/03/21 20:39:18;;;;;;;27.70;14.05;;;;;;;;;;10501048;28;20039;-78
2023/03/21 20:44:40;;;;;;;20.75;11.82;;;;;;;;;;10525109;28;20039;-78
2023/03/21 20:50:01;;;;;;;22.65;11.40;;;;;;;;;;10514498;28;20025;-78
2023/03/21 20:55:23;;;;;;;20.98;12.23;;;;;;;;;;10526121;28;20052;-78
2023/03/21 21:00:44;;;;;;;27.45;12.63;;;;;;;;;;10473738;28;20064;-78
2023/03/21 21:06:12;;;;;;;19.15;10.88;;;;;;;;;;10508103;28;20040;-78
2023/03/21 21:11:33;;;;;;;27.20;13.15;;;;;;;;;;10549646;27;20040;-78
2023/03/21 21:16:54;;;;;;;20.83;11.30;;;;;;;;;;10511352;28;20035;-78
2023/03/21 21:22:15;;;;;;;22.73;12.30;;;;;;;;;;10501972;28;20481;-78
2023/03/21 21:27:36;;;;;;;20.02;10.88;;;;;;;;;;10506406;28;20031;-78
2023/03/21 21:32:59;;;;;;;30.30;13.60;;;;;;;;;;10496344;28;20448;-78
2023/03/21 21:38:21;;;;;;;25.80;13.30;;;;;;;;;;10488441;28;20032;-78
2023/03/21 21:43:42;;;;;;;29.98;13.88;;;;;;;;;;10499226;28;20036;-78
2023/03/21 21:49:03;;;;;;;28.40;12.98;;;;;;;;;;10489423;28;20032;-78
2023/03/21 21:54:24;;;;;;;22.65;11.82;;;;;;;;;;10506244;28;20040;-78
2023/03/21 21:59:45;;;;;;;15.20;9.00;;;;;;;;;;10520138;28;20039;-78
2023/03/21 22:05:07;;;;;;;20.95;11.02;;;;;;;;;;10519100;28;20077;-78
2023/03/21 22:10:29;;;;;;;22.73;10.48;;;;;;;;;;10523680;28;20043;-78
2023/03/21 22:15:51;;;;;;;21.00;10.25;;;;;;;;;;10510445;28;20032;-78
2023/03/21 22:21:12;;;;;;;26.63;10.82;;;;;;;;;;10528490;28;20042;-79
2023/03/21 22:26:32;;;;;;;24.00;10.48;;;;;;;;;;10519259;28;20047;-78
2023/03/21 22:31:54;;;;;;;24.50;11.20;;;;;;;;;;10502158;28;20036;-78
2023/03/21 22:37:14;;;;;;;23.45;10.02;;;;;;;;;;10515725;28;20439;-78
2023/03/21 22:42:36;;;;;;;13.48;7.82;;;;;;;;;;10521756;28;20035;-78
2023/03/21 22:47:58;;;;;;;27.38;10.23;;;;;;;;;;10495658;28;20040;-77
2023/03/21 22:53:19;;;;;;;20.92;8.60;;;;;;;;;;10485867;28;20566;-78
2023/03/21 22:58:40;;;;;;;18.45;8.60;;;;;;;;;;10509704;28;20031;-78
2023/03/21 23:04:01;;;;;;;26.73;9.35;;;;;;;;;;10503071;28;20044;-78
2023/03/21 23:09:22;;;;;;;21.65;9.73;;;;;;;;;;10507340;28;20047;-78
2023/03/21 23:14:43;;;;;;;18.60;8.02;;;;;;;;;;10507087;28;20036;-78
2023/03/21 23:20:06;;;;;;;21.27;8.70;;;;;;;;;;10511835;28;20036;-78
2023/03/21 23:25:32;;;;;;;25.88;10.25;;;;;;;;;;10500138;28;20040;-78
2023/03/21 23:30:53;;;;;;;24.38;9.10;;;;;;;;;;10522637;28;20685;-78
2023/03/21 23:36:15;;;;;;;18.08;8.15;;;;;;;;;;10502655;28;20031;-78
2023/03/21 23:41:36;;;;;;;19.35;8.60;;;;;;;;;;10521895;28;20515;-78
2023/03/21 23:46:57;;;;;;;25.23;10.27;;;;;;;;;;10523775;28;20039;-78
2023/03/21 23:52:18;;;;;;;23.75;10.10;;;;;;;;;;10503612;28;20043;-77
2023/03/21 23:57:40;;;;;;;30.73;11.95;;;;;;;;;;10495915;28;20048;-78
